Time;durP1;ratioP1;P1;durP2;ratioP2;P2;SDS_P1;SDS_P2;PMS_P1;PMS_P2;Temp;Humidity;BMP_temperature;BMP_pressure;BME280_temperature;BME280_humidity;BME280_pressure;Samples;Min_cycle;Max_cycle;Signal;HPM_P1;HPM_P2
2022/11/15 00:01:14;;;;;;;;;;;23.60;90.70;;;;;;5024554;28;20452;-70
2022/11/15 00:03:41;;;;;;;;;;;23.40;90.50;;;;;;5039297;28;19927;-71
2022/11/15 00:06:07;;;;;;;;;;;23.50;90.80;;;;;;5040684;28;19913;-71
2022/11/15 00:08:34;;;;;;;;;;;23.50;90.50;;;;;;5026792;28;20362;-71
2022/11/15 00:11:01;;;;;;;;;;;23.50;90.20;;;;;;5022509;28;20652;-71
2022/11/15 00:13:28;;;;;;;;;;;23.50;90.00;;;;;;5031835;28;20744;-69
2022/11/15 00:15:58;;;;;;;;;;;23.70;90.20;;;;;;5019604;28;19959;-71
2022/11/15 00:18:24;;;;;;;;;;;23.60;89.80;;;;;;5019311;28;19916;-72
2022/11/15 00:20:51;;;;;;;;;;;23.80;89.30;;;;;;5018888;28;20366;-70
2022/11/15 00:23:18;;;;;;;;;;;24.00;88.30;;;;;;5019302;28;19928;-70
2022/11/15 00:25:44;;;;;;;;;;;24.40;87.30;;;;;;5017835;28;19913;-69
2022/11/15 00:28:11;;;;;;;;;;;24.50;86.90;;;;;;5020240;28;19913;-70
2022/11/15 00:30:37;;;;;;;;;;;24.60;86.30;;;;;;5019557;28;19917;-69
2022/11/15 00:33:05;;;;;;;;;;;24.60;86.40;;;;;;5027179;28;19913;-68
2022/11/15 00:35:33;;;;;;;;;;;24.50;86.80;;;;;;5020056;28;19919;-69
2022/11/15 00:38:00;;;;;;;;;;;24.20;87.20;;;;;;5018554;28;19917;-69
2022/11/15 00:40:26;;;;;;;;;;;24.10;86.60;;;;;;5019111;28;19925;-69
2022/11/15 00:42:53;;;;;;;;;;;24.10;86.70;;;;;;5036823;28;20019;-70
2022/11/15 00:45:20;;;;;;;;;;;23.90;88.10;;;;;;5028818;28;19917;-68
2022/11/15 00:47:46;;;;;;;;;;;23.90;90.00;;;;;;5018155;28;19963;-68
2022/11/15 00:50:13;;;;;;;;;;;23.70;90.40;;;;;;5020535;28;20032;-69
2022/11/15 00:52:40;;;;;;;;;;;23.60;90.60;;;;;;5035615;28;19909;-68
2022/11/15 00:55:07;;;;;;;;;;;23.50;90.50;;;;;;5029501;28;19910;-68
2022/11/15 00:57:33;;;;;;;;;;;23.40;90.70;;;;;;5019273;28;19909;-69
2022/11/15 01:00:00;;;;;;;;;;;23.30;91.10;;;;;;5019346;28;19939;-69
2022/11/15 01:02:27;;;;;;;;;;;23.20;91.10;;;;;;5019218;28;19921;-69
2022/11/15 01:04:54;;;;;;;;;;;23.20;91.20;;;;;;5001360;28;19939;-67
2022/11/15 01:07:21;;;;;;;;;;;23.20;90.50;;;;;;5019863;28;19910;-68
2022/11/15 01:09:47;;;;;;;;;;;23.30;90.50;;;;;;5018326;28;19924;-70
2022/11/15 01:12:14;;;;;;;;;;;23.60;90.30;;;;;;5002078;28;19913;-67
2022/11/15 01:14:40;;;;;;;;;;;23.80;89.80;;;;;;5019277;28;19949;-67
2022/11/15 01:17:07;;;;;;;;;;;24.30;88.90;;;;;;5018637;28;19916;-67
2022/11/15 01:19:34;;;;;;;;;;;24.60;87.90;;;;;;5018907;28;19905;-71
2022/11/15 01:22:01;;;;;;;;;;;24.80;88.50;;;;;;5018559;28;20362;-71
2022/11/15 01:24:27;;;;;;;;;;;25.00;85.30;;;;;;5019142;28;19929;-69
2022/11/15 01:26:54;;;;;;;;;;;25.10;85.10;;;;;;5017674;28;20412;-67
2022/11/15 01:29:21;;;;;;;;;;;25.20;85.20;;;;;;5018991;28;19960;-71
2022/11/15 01:31:47;;;;;;;;;;;25.40;85.90;;;;;;5019731;28;19913;-70
2022/11/15 01:34:14;;;;;;;;;;;25.60;86.30;;;;;;5018281;28;20338;-71
2022/11/15 01:36:41;;;;;;;;;;;25.80;84.80;;;;;;5018468;28;19916;-69
2022/11/15 01:39:08;;;;;;;;;;;25.90;85.60;;;;;;5017749;28;19924;-72
2022/11/15 01:41:34;;;;;;;;;;;25.90;85.00;;;;;;5018453;28;19921;-67
2022/11/15 01:44:19;;;;;;;;;;;26.00;84.20;;;;;;5019336;28;19924;-70
2022/11/15 01:46:47;;;;;;;;;;;26.30;83.10;;;;;;5005368;28;19921;-70
2022/11/15 01:49:16;;;;;;;;;;;26.40;82.60;;;;;;4997662;28;19980;-68
2022/11/15 01:51:42;;;;;;;;;;;26.40;82.40;;;;;;5007076;28;20111;-68
2022/11/15 01:54:11;;;;;;;;;;;26.40;81.40;;;;;;5018318;28;19916;-69
2022/11/15 01:56:41;;;;;;;;;;;26.40;80.80;;;;;;5017722;28;19917;-69
2022/11/15 01:59:08;;;;;;;;;;;26.70;80.60;;;;;;5018781;28;20003;-69
2022/11/15 02:01:35;;;;;;;;;;;27.00;80.10;;;;;;5024426;28;19931;-68
2022/11/15 02:04:09;;;;;;;;;;;26.90;80.00;;;;;;5038435;28;19923;-69
2022/11/15 02:06:36;;;;;;;;;;;26.80;80.90;;;;;;5037840;28;19909;-69
2022/11/15 02:09:03;;;;;;;;;;;26.70;80.90;;;;;;5038633;28;19955;-68
2022/11/15 02:11:29;;;;;;;;;;;26.90;81.10;;;;;;5029294;28;19913;-66
2022/11/15 02:13:57;;;;;;;;;;;27.20;80.00;;;;;;5017782;28;19945;-69
2022/11/15 02:16:26;;;;;;;;;;;27.10;79.90;;;;;;4997726;28;20010;-68
2022/11/15 02:19:00;;;;;;;;;;;27.10;81.20;;;;;;5016522;28;19959;-66
2022/11/15 02:21:39;;;;;;;;;;;27.00;81.00;;;;;;5015447;28;19909;-69
2022/11/15 02:24:24;;;;;;;;;;;26.90;80.30;;;;;;5017878;28;19925;-67
2022/11/15 02:27:03;;;;;;;;;;;26.20;81.90;;;;;;5016873;28;19913;-67
2022/11/15 02:29:47;;;;;;;;;;;26.00;82.10;;;;;;5016025;28;20096;-68
2022/11/15 02:32:34;;;;;;;;;;;26.10;82.30;;;;;;5017610;28;20322;-68
2022/11/15 02:35:10;;;;;;;;;;;26.00;82.80;;;;;;5018294;28;19948;-68
2022/11/15 02:37:45;;;;;;;;;;;26.70;83.20;;;;;;4999358;28;19920;-67
2022/11/15 02:40:15;;;;;;;;;;;27.20;81.40;;;;;;5018524;28;19928;-68
2022/11/15 02:45:36;;;;;;;;;;;28.50;79.10;;;;;;5020899;28;19920;-68
2022/11/15 02:48:04;;;;;;;;;;;29.40;76.20;;;;;;5022411;28;19909;-66
2022/11/15 02:50:33;;;;;;;;;;;29.80;74.20;;;;;;5020725;28;19913;-66
2022/11/15 02:52:59;;;;;;;;;;;29.90;74.10;;;;;;5021392;28;19966;-67
2022/11/15 02:55:33;;;;;;;;;;;30.10;73.50;;;;;;5020884;28;19913;-67
2022/11/15 02:58:18;;;;;;;;;;;30.70;72.80;;;;;;5022100;28;19962;-67
2022/11/15 03:00:55;;;;;;;;;;;31.70;69.40;;;;;;5021073;28;19956;-68
2022/11/15 03:03:28;;;;;;;;;;;31.90;70.50;;;;;;5020955;28;19917;-68
2022/11/15 03:06:17;;;;;;;;;;;32.40;68.40;;;;;;5021272;28;20317;-66
2022/11/15 03:08:46;;;;;;;;;;;31.60;69.50;;;;;;5001079;28;19914;-68
2022/11/15 03:11:13;;;;;;;;;;;30.70;70.80;;;;;;5019201;28;19909;-70
2022/11/15 03:13:44;;;;;;;;;;;30.40;71.80;;;;;;5020048;28;19909;-68
2022/11/15 03:16:29;;;;;;;;;;;30.60;70.00;;;;;;5022044;28;20466;-69
2022/11/15 03:19:21;;;;;;;;;;;30.20;69.30;;;;;;5019678;28;20255;-68
2022/11/15 03:21:49;;;;;;;;;;;29.20;71.20;;;;;;5020028;28;19977;-68
2022/11/15 03:24:16;;;;;;;;;;;28.50;74.40;;;;;;5021040;28;19929;-69
2022/11/15 03:26:44;;;;;;;;;;;29.50;72.60;;;;;;5019263;28;20011;-69
2022/11/15 03:29:36;;;;;;;;;;;30.70;71.20;;;;;;5020549;28;19913;-70
2022/11/15 03:32:06;;;;;;;;;;;31.80;68.60;;;;;;5015836;28;19913;-71
2022/11/15 03:34:36;;;;;;;;;;;33.30;67.40;;;;;;5021356;28;19913;-70
2022/11/15 03:37:03;;;;;;;;;;;34.40;64.70;;;;;;5017376;28;19914;-70
2022/11/15 03:39:30;;;;;;;;;;;34.00;63.50;;;;;;5021280;28;19913;-69
2022/11/15 03:42:05;;;;;;;;;;;33.10;65.30;;;;;;5015680;28;19925;-69
2022/11/15 03:44:36;;;;;;;;;;;33.20;65.40;;;;;;5017941;28;19960;-67
2022/11/15 03:47:22;;;;;;;;;;;32.30;66.00;;;;;;5015457;28;19916;-68
2022/11/15 03:49:54;;;;;;;;;;;31.00;67.40;;;;;;4996786;28;20008;-68
2022/11/15 03:52:21;;;;;;;;;;;29.50;70.60;;;;;;5020025;28;20374;-68
2022/11/15 03:54:52;;;;;;;;;;;28.40;72.60;;;;;;4992780;28;19920;-68
2022/11/15 03:57:19;;;;;;;;;;;27.10;75.50;;;;;;5001598;28;20372;-70
2022/11/15 03:59:46;;;;;;;;;;;26.40;77.70;;;;;;5014554;28;19913;-69
2022/11/15 04:02:13;;;;;;;;;;;25.90;79.40;;;;;;5017922;28;19913;-71
2022/11/15 04:04:40;;;;;;;;;;;25.40;80.90;;;;;;5018844;28;19940;-67
2022/11/15 04:07:06;;;;;;;;;;;24.80;83.60;;;;;;5014361;28;19913;-67
2022/11/15 04:09:33;;;;;;;;;;;24.60;84.90;;;;;;5017803;28;19924;-68
2022/11/15 04:11:59;;;;;;;;;;;24.40;84.90;;;;;;5016051;28;19971;-68
2022/11/15 04:14:26;;;;;;;;;;;24.40;85.10;;;;;;5019624;28;19913;-70
2022/11/15 04:16:53;;;;;;;;;;;24.10;85.60;;;;;;5017434;28;19936;-67
2022/11/15 04:24:49;;;;;;;;;;;22.90;90.50;;;;;;5015167;28;20408;-68
2022/11/15 04:27:15;;;;;;;;;;;22.60;90.80;;;;;;5018254;28;19913;-67
2022/11/15 04:29:42;;;;;;;;;;;22.50;91.20;;;;;;5018590;28;19913;-68
2022/11/15 04:32:09;;;;;;;;;;;22.40;91.40;;;;;;5016735;28;20376;-68
2022/11/15 04:34:36;;;;;;;;;;;22.30;91.90;;;;;;5018691;28;20023;-68
2022/11/15 04:37:11;;;;;;;;;;;22.30;92.10;;;;;;5016658;28;19909;-68
2022/11/15 04:39:38;;;;;;;;;;;22.40;92.30;;;;;;4893687;28;3543861;-67
2022/11/15 04:42:05;;;;;;;;;;;22.40;92.50;;;;;;5017149;28;19913;-68
2022/11/15 04:44:32;;;;;;;;;;;23.00;92.20;;;;;;5020212;28;19950;-70
2022/11/15 04:46:58;;;;;;;;;;;24.10;90.90;;;;;;5010430;28;20008;-67
2022/11/15 04:49:25;;;;;;;;;;;25.90;86.70;;;;;;5016215;28;20216;-68
2022/11/15 04:51:52;;;;;;;;;;;27.60;83.00;;;;;;5008562;28;19998;-66
2022/11/15 04:54:18;;;;;;;;;;;29.00;77.10;;;;;;5017430;28;19913;-66
2022/11/15 04:56:45;;;;;;;;;;;29.60;75.10;;;;;;5012822;28;20004;-65
2022/11/15 04:59:12;;;;;;;;;;;29.80;73.40;;;;;;5008609;28;20392;-66
2022/11/15 05:01:38;;;;;;;;;;;29.60;74.80;;;;;;5018107;28;19968;-68
2022/11/15 05:04:20;;;;;;;;;;;30.60;74.10;;;;;;5015690;28;19921;-69
2022/11/15 05:06:48;;;;;;;;;;;30.50;72.40;;;;;;5009959;28;19956;-68
2022/11/15 05:09:15;;;;;;;;;;;30.40;73.90;;;;;;5013816;28;19988;-67
2022/11/15 05:11:41;;;;;;;;;;;29.70;73.90;;;;;;5011925;28;19913;-67
2022/11/15 05:14:08;;;;;;;;;;;30.20;74.40;;;;;;5015804;28;20598;-68
2022/11/15 05:16:35;;;;;;;;;;;31.70;72.10;;;;;;5015659;28;19920;-68
2022/11/15 05:19:01;;;;;;;;;;;32.40;68.80;;;;;;5016103;28;19916;-69
2022/11/15 05:21:28;;;;;;;;;;;32.90;67.50;;;;;;5016323;28;19992;-70
2022/11/15 05:23:55;;;;;;;;;;;33.40;65.30;;;;;;5013876;28;19979;-69
2022/11/15 05:26:21;;;;;;;;;;;32.80;67.00;;;;;;5007932;28;19909;-68
2022/11/15 05:28:53;;;;;;;;;;;32.50;66.30;;;;;;5009072;28;20345;-68
2022/11/15 05:31:19;;;;;;;;;;;33.00;67.20;;;;;;5005842;28;19948;-68
2022/11/15 05:33:46;;;;;;;;;;;32.70;66.00;;;;;;5013467;28;19924;-68
2022/11/15 05:36:22;;;;;;;;;;;31.50;68.00;;;;;;5015624;28;19917;-69
2022/11/15 05:38:50;;;;;;;;;;;29.70;70.50;;;;;;5006750;28;19929;-68
2022/11/15 05:41:18;;;;;;;;;;;29.60;71.80;;;;;;5015055;28;19925;-69
2022/11/15 05:43:45;;;;;;;;;;;29.80;72.00;;;;;;5014312;28;19936;-65
2022/11/15 05:46:13;;;;;;;;;;;29.70;72.30;;;;;;5014739;28;19921;-68
2022/11/15 05:48:40;;;;;;;;;;;30.70;70.50;;;;;;5009048;28;20444;-68
2022/11/15 05:51:07;;;;;;;;;;;31.50;70.20;;;;;;5010919;28;19917;-67
2022/11/15 05:53:35;;;;;;;;;;;32.10;68.00;;;;;;5020278;28;19913;-70
2022/11/15 05:56:02;;;;;;;;;;;32.40;67.40;;;;;;5007941;28;19979;-69
2022/11/15 05:58:31;;;;;;;;;;;32.60;67.50;;;;;;5010129;28;19925;-71
2022/11/15 06:00:57;;;;;;;;;;;32.60;68.60;;;;;;5017191;28;19913;-68
2022/11/15 06:03:24;;;;;;;;;;;32.50;67.90;;;;;;5016853;28;19921;-74
2022/11/15 06:05:50;;;;;;;;;;;32.00;68.20;;;;;;5011427;28;20388;-71
2022/11/15 06:08:17;;;;;;;;;;;31.50;69.00;;;;;;5016920;28;19951;-71
2022/11/15 06:10:44;;;;;;;;;;;30.80;70.30;;;;;;5015524;28;19913;-69
2022/11/15 06:13:10;;;;;;;;;;;29.90;71.60;;;;;;5016943;28;19913;-71
2022/11/15 06:15:37;;;;;;;;;;;29.00;72.90;;;;;;5006018;28;19916;-71
2022/11/15 06:18:04;;;;;;;;;;;28.00;75.40;;;;;;5009307;28;19979;-68
2022/11/15 06:20:30;;;;;;;;;;;27.10;76.90;;;;;;5020929;28;20037;-67
2022/11/15 06:22:58;;;;;;;;;;;26.60;78.00;;;;;;5017138;28;20652;-67
2022/11/15 06:25:26;;;;;;;;;;;26.00;79.80;;;;;;5019849;28;19917;-69
2022/11/15 06:27:53;;;;;;;;;;;25.70;80.70;;;;;;5020100;28;20048;-70
2022/11/15 06:30:20;;;;;;;;;;;25.30;81.30;;;;;;5031781;28;19913;-72
2022/11/15 06:32:47;;;;;;;;;;;25.20;82.30;;;;;;5019015;28;19913;-71
2022/11/15 06:35:14;;;;;;;;;;;24.80;82.70;;;;;;5021821;28;19924;-68
2022/11/15 06:37:41;;;;;;;;;;;24.60;84.40;;;;;;5022639;28;19913;-70
2022/11/15 06:40:08;;;;;;;;;;;24.60;85.20;;;;;;5042104;28;19924;-71
2022/11/15 06:42:35;;;;;;;;;;;24.50;85.40;;;;;;5037668;28;19909;-69
2022/11/15 06:45:01;;;;;;;;;;;24.20;85.80;;;;;;5020676;28;19924;-68
2022/11/15 06:47:28;;;;;;;;;;;24.20;86.90;;;;;;5021804;28;19917;-70
2022/11/15 06:49:54;;;;;;;;;;;24.10;87.40;;;;;;5019791;28;19913;-69
2022/11/15 06:52:22;;;;;;;;;;;24.00;88.70;;;;;;5022271;28;19920;-72
2022/11/15 06:54:48;;;;;;;;;;;23.90;90.00;;;;;;5019809;28;19975;-74
2022/11/15 06:57:15;;;;;;;;;;;23.80;90.20;;;;;;5004062;28;19982;-69
2022/11/15 06:59:41;;;;;;;;;;;23.60;90.00;;;;;;5020146;28;19910;-69
2022/11/15 07:02:12;;;;;;;;;;;23.50;90.40;;;;;;5018739;28;20624;-68
2022/11/15 07:04:39;;;;;;;;;;;23.20;91.00;;;;;;5020489;28;20376;-69
2022/11/15 07:07:05;;;;;;;;;;;23.20;91.30;;;;;;5020299;28;19913;-67
2022/11/15 07:09:32;;;;;;;;;;;23.00;92.00;;;;;;5021819;28;19944;-67
2022/11/15 07:11:59;;;;;;;;;;;22.90;92.50;;;;;;5019417;28;20251;-67
2022/11/15 07:14:25;;;;;;;;;;;22.90;92.50;;;;;;5021165;28;19935;-67
2022/11/15 07:16:52;;;;;;;;;;;22.70;92.80;;;;;;5019492;28;20285;-68
2022/11/15 07:19:18;;;;;;;;;;;22.70;93.20;;;;;;5021229;28;19983;-67
2022/11/15 07:21:45;;;;;;;;;;;22.60;93.50;;;;;;5019034;28;20441;-70
2022/11/15 07:24:12;;;;;;;;;;;22.60;93.60;;;;;;5020326;28;19968;-68
2022/11/15 07:26:38;;;;;;;;;;;22.50;93.70;;;;;;5021312;28;20015;-66
2022/11/15 07:29:05;;;;;;;;;;;22.40;94.10;;;;;;5019337;28;20004;-67
2022/11/15 07:31:32;;;;;;;;;;;22.40;94.80;;;;;;5020052;28;19921;-67
2022/11/15 07:33:58;;;;;;;;;;;22.40;94.60;;;;;;5016009;28;19974;-69
2022/11/15 07:36:25;;;;;;;;;;;22.20;96.00;;;;;;5031764;28;19913;-72
2022/11/15 07:38:52;;;;;;;;;;;22.20;98.30;;;;;;5021151;28;19916;-71
2022/11/15 07:41:18;;;;;;;;;;;22.10;99.90;;;;;;5018813;28;20309;-71
2022/11/15 07:43:45;;;;;;;;;;;21.80;99.90;;;;;;5021818;28;19917;-69
2022/11/15 07:46:12;;;;;;;;;;;21.50;99.90;;;;;;5017050;28;20290;-73
2022/11/15 07:48:40;;;;;;;;;;;21.30;99.90;;;;;;5020138;28;19988;-70
2022/11/15 07:51:07;;;;;;;;;;;21.20;99.90;;;;;;5018537;28;19944;-69
2022/11/15 07:53:33;;;;;;;;;;;21.10;99.90;;;;;;5022535;28;19913;-69
2022/11/15 07:56:00;;;;;;;;;;;20.80;99.90;;;;;;5018866;28;19920;-70
2022/11/15 07:58:27;;;;;;;;;;;20.70;99.90;;;;;;5022416;28;19913;-66
2022/11/15 08:00:54;;;;;;;;;;;20.70;99.90;;;;;;5018233;28;19932;-69
2022/11/15 08:03:20;;;;;;;;;;;20.70;99.90;;;;;;5019494;28;20020;-71
2022/11/15 08:05:50;;;;;;;;;;;20.50;99.90;;;;;;5020816;28;19913;-68
2022/11/15 08:08:17;;;;;;;;;;;20.60;99.90;;;;;;5018426;28;19909;-69
2022/11/15 08:10:44;;;;;;;;;;;20.60;99.90;;;;;;5021232;28;20289;-67
2022/11/15 08:13:12;;;;;;;;;;;20.70;99.90;;;;;;5018096;28;19916;-69
2022/11/15 08:15:38;;;;;;;;;;;20.70;99.90;;;;;;5020820;28;20003;-70
2022/11/15 08:18:06;;;;;;;;;;;20.80;99.90;;;;;;5016656;28;19916;-69
2022/11/15 08:20:33;;;;;;;;;;;20.70;99.90;;;;;;5018852;28;20373;-70
2022/11/15 08:23:01;;;;;;;;;;;20.60;99.90;;;;;;5016490;28;19924;-70
2022/11/15 08:25:29;;;;;;;;;;;20.50;99.90;;;;;;5019065;28;19956;-73
2022/11/15 08:27:57;;;;;;;;;;;20.50;99.90;;;;;;5017990;28;19952;-71
2022/11/15 08:30:24;;;;;;;;;;;20.40;99.90;;;;;;5018727;28;19948;-71
2022/11/15 08:32:51;;;;;;;;;;;20.20;99.90;;;;;;5019481;28;20354;-72
2022/11/15 08:35:19;;;;;;;;;;;20.10;99.90;;;;;;5018580;28;19924;-73
2022/11/15 08:37:45;;;;;;;;;;;20.00;99.90;;;;;;5020345;28;19964;-69
2022/11/15 08:40:13;;;;;;;;;;;20.00;99.90;;;;;;5017357;28;19922;-70
2022/11/15 08:42:40;;;;;;;;;;;20.10;99.90;;;;;;5019501;28;19988;-67
2022/11/15 08:45:08;;;;;;;;;;;20.00;99.90;;;;;;5008979;28;19948;-69
2022/11/15 08:47:35;;;;;;;;;;;19.90;99.90;;;;;;5017630;28;20417;-67
2022/11/15 08:50:01;;;;;;;;;;;19.90;99.90;;;;;;5015680;28;19999;-68
2022/11/15 08:52:28;;;;;;;;;;;19.80;99.90;;;;;;5007010;28;19936;-69
2022/11/15 08:54:54;;;;;;;;;;;19.80;99.90;;;;;;5010088;28;19924;-69
2022/11/15 08:57:21;;;;;;;;;;;19.80;99.90;;;;;;5016942;28;20040;-66
2022/11/15 08:59:48;;;;;;;;;;;19.90;99.90;;;;;;5014226;28;19924;-73
2022/11/15 09:02:15;;;;;;;;;;;20.00;99.90;;;;;;5017275;28;19920;-68
2022/11/15 09:04:42;;;;;;;;;;;19.90;99.90;;;;;;5013310;28;19960;-73
2022/11/15 09:07:09;;;;;;;;;;;19.90;99.90;;;;;;5013476;28;20329;-68
2022/11/15 09:09:37;;;;;;;;;;;19.80;99.90;;;;;;5012232;28;19917;-66
2022/11/15 09:12:04;;;;;;;;;;;19.80;99.90;;;;;;5014051;28;19955;-68
2022/11/15 09:14:30;;;;;;;;;;;19.70;99.90;;;;;;5004304;28;19941;-66
2022/11/15 09:16:58;;;;;;;;;;;19.60;99.90;;;;;;5013067;28;19909;-65
2022/11/15 09:19:24;;;;;;;;;;;19.60;99.90;;;;;;5012846;28;19960;-67
2022/11/15 09:21:51;;;;;;;;;;;19.50;99.90;;;;;;5012439;28;19914;-67
2022/11/15 09:24:18;;;;;;;;;;;19.50;99.90;;;;;;5023329;28;19936;-69
2022/11/15 09:26:44;;;;;;;;;;;19.50;99.90;;;;;;5008681;28;20011;-66
2022/11/15 09:29:11;;;;;;;;;;;19.50;99.90;;;;;;5014246;28;19913;-66
2022/11/15 09:31:38;;;;;;;;;;;19.50;99.90;;;;;;5015056;28;19913;-66
2022/11/15 09:34:04;;;;;;;;;;;19.50;99.90;;;;;;5014944;28;19913;-67
2022/11/15 09:36:31;;;;;;;;;;;19.60;99.90;;;;;;5012037;28;20014;-66
2022/11/15 09:38:58;;;;;;;;;;;19.60;99.90;;;;;;5012813;28;19967;-70
2022/11/15 09:41:43;;;;;;;;;;;19.50;99.90;;;;;;5015129;28;19968;-66
2022/11/15 09:44:09;;;;;;;;;;;19.50;99.90;;;;;;5011936;28;19927;-65
2022/11/15 09:46:55;;;;;;;;;;;19.50;99.90;;;;;;5010078;28;19913;-67
2022/11/15 09:49:22;;;;;;;;;;;19.50;99.90;;;;;;5010896;28;19914;-70
2022/11/15 09:51:50;;;;;;;;;;;19.50;99.90;;;;;;5005801;28;19929;-67
2022/11/15 09:54:28;;;;;;;;;;;19.50;99.90;;;;;;5017191;28;19940;-70
2022/11/15 09:56:56;;;;;;;;;;;19.50;99.90;;;;;;5016886;28;19923;-70
2022/11/15 09:59:31;;;;;;;;;;;19.50;99.90;;;;;;5018415;28;19910;-69
2022/11/15 10:02:16;;;;;;;;;;;19.50;99.90;;;;;;5016661;28;19917;-70
2022/11/15 10:04:43;;;;;;;;;;;19.50;99.90;;;;;;5013899;28;19921;-68
2022/11/15 10:07:19;;;;;;;;;;;19.40;99.90;;;;;;5019281;28;19913;-67
2022/11/15 10:09:49;;;;;;;;;;;19.40;99.90;;;;;;5017077;28;20429;-69
2022/11/15 10:12:16;;;;;;;;;;;19.40;99.90;;;;;;5017696;28;19916;-67
2022/11/15 10:14:42;;;;;;;;;;;19.40;99.90;;;;;;5017336;28;19915;-67
2022/11/15 10:17:32;;;;;;;;;;;19.30;99.90;;;;;;5019172;28;19989;-68
2022/11/15 10:20:02;;;;;;;;;;;19.30;99.90;;;;;;5007033;28;19913;-69
2022/11/15 10:22:44;;;;;;;;;;;19.30;99.90;;;;;;5021786;28;19919;-68
2022/11/15 10:25:17;;;;;;;;;;;19.30;99.90;;;;;;4999548;28;19921;-65
2022/11/15 10:27:44;;;;;;;;;;;19.30;99.90;;;;;;5016755;28;19932;-64
2022/11/15 10:30:13;;;;;;;;;;;19.30;99.90;;;;;;5018989;28;19920;-67
2022/11/15 10:32:41;;;;;;;;;;;19.20;99.90;;;;;;5018675;28;19920;-66
2022/11/15 10:35:23;;;;;;;;;;;19.10;99.90;;;;;;5021421;28;19917;-67
2022/11/15 10:37:50;;;;;;;;;;;19.00;99.90;;;;;;5037850;28;20000;-66
2022/11/15 10:40:21;;;;;;;;;;;19.10;99.90;;;;;;5018514;28;19928;-66
2022/11/15 10:42:48;;;;;;;;;;;19.00;99.90;;;;;;5018152;28;19909;-66
2022/11/15 10:45:29;;;;;;;;;;;19.00;99.90;;;;;;5019135;28;19912;-68
2022/11/15 10:48:15;;;;;;;;;;;19.00;99.90;;;;;;5017723;28;20273;-66
2022/11/15 10:50:43;;;;;;;;;;;19.00;99.90;;;;;;5018955;28;19935;-66
2022/11/15 10:53:22;;;;;;;;;;;18.90;99.90;;;;;;5017487;28;19920;-66
2022/11/15 10:55:49;;;;;;;;;;;18.90;99.90;;;;;;5017700;28;19913;-69
2022/11/15 10:58:31;;;;;;;;;;;18.70;99.90;;;;;;5018851;28;20382;-71
2022/11/15 11:01:09;;;;;;;;;;;18.70;99.90;;;;;;5016214;28;19987;-66
2022/11/15 11:03:39;;;;;;;;;;;18.70;99.90;;;;;;5019373;28;20020;-67
2022/11/15 11:06:12;;;;;;;;;;;18.60;99.90;;;;;;5020254;28;20378;-68
2022/11/15 11:08:39;;;;;;;;;;;18.60;99.90;;;;;;5004041;28;20365;-68
2022/11/15 11:11:07;;;;;;;;;;;18.50;99.90;;;;;;5021191;28;20262;-67
2022/11/15 11:13:35;;;;;;;;;;;18.40;99.90;;;;;;5022859;28;19916;-71
2022/11/15 11:16:01;;;;;;;;;;;18.30;99.90;;;;;;5020209;28;19967;-67
2022/11/15 11:18:38;;;;;;;;;;;18.30;99.90;;;;;;5022277;28;19909;-65
2022/11/15 11:21:11;;;;;;;;;;;18.20;99.90;;;;;;5020117;28;19960;-69
2022/11/15 11:23:49;;;;;;;;;;;18.20;99.90;;;;;;5021867;28;19994;-67
2022/11/15 11:26:34;;;;;;;;;;;18.10;99.90;;;;;;5021584;28;19952;-67
2022/11/15 11:29:09;;;;;;;;;;;18.10;99.90;;;;;;5020264;28;19968;-66
2022/11/15 11:31:47;;;;;;;;;;;18.00;99.90;;;;;;5022107;28;19924;-66
2022/11/15 11:34:33;;;;;;;;;;;18.00;99.00;;;;;;5020087;28;19952;-66
2022/11/15 11:37:02;;;;;;;;;;;17.90;98.50;;;;;;5019443;28;19913;-67
2022/11/15 11:39:29;;;;;;;;;;;17.90;97.20;;;;;;5021270;28;19925;-66
2022/11/15 11:42:17;;;;;;;;;;;17.90;96.60;;;;;;5020780;28;19955;-67
2022/11/15 11:44:59;;;;;;;;;;;17.90;95.50;;;;;;5021328;28;19917;-70
2022/11/15 11:47:46;;;;;;;;;;;17.80;94.10;;;;;;5022193;28;19913;-69
2022/11/15 11:50:12;;;;;;;;;;;17.90;93.70;;;;;;5019891;28;20855;-67
2022/11/15 11:52:45;;;;;;;;;;;17.80;94.00;;;;;;5004061;28;19916;-71
2022/11/15 11:55:21;;;;;;;;;;;17.80;92.90;;;;;;5020422;28;19913;-68
2022/11/15 11:57:57;;;;;;;;;;;17.80;92.50;;;;;;5020009;28;20370;-68
2022/11/15 12:00:25;;;;;;;;;;;17.70;92.30;;;;;;5020030;28;19913;-69
2022/11/15 12:03:04;;;;;;;;;;;17.70;91.10;;;;;;5020410;28;20641;-68
2022/11/15 12:05:36;;;;;;;;;;;17.70;91.10;;;;;;5027017;28;20377;-69
2022/11/15 12:08:19;;;;;;;;;;;17.70;90.80;;;;;;5039848;28;19999;-69
2022/11/15 12:10:49;;;;;;;;;;;17.70;91.00;;;;;;5033947;28;19913;-69
2022/11/15 12:13:21;;;;;;;;;;;17.70;90.00;;;;;;5020611;28;19913;-68
2022/11/15 12:16:00;;;;;;;;;;;17.70;89.30;;;;;;5019223;28;20016;-67
2022/11/15 12:18:26;;;;;;;;;;;17.70;89.00;;;;;;5020715;28;19939;-68
2022/11/15 12:20:58;;;;;;;;;;;17.60;88.60;;;;;;5020335;28;19916;-71
2022/11/15 12:23:28;;;;;;;;;;;17.60;89.50;;;;;;5020056;28;19924;-67
2022/11/15 12:25:58;;;;;;;;;;;17.50;90.10;;;;;;5020619;28;19909;-70
2022/11/15 12:28:42;;;;;;;;;;;17.60;88.20;;;;;;5019719;28;19909;-70
2022/11/15 12:31:16;;;;;;;;;;;17.60;88.20;;;;;;5020378;28;19909;-67
2022/11/15 12:33:43;;;;;;;;;;;17.60;87.80;;;;;;5020830;28;19909;-68
2022/11/15 12:36:10;;;;;;;;;;;17.60;87.40;;;;;;5019533;28;19930;-72
2022/11/15 12:38:56;;;;;;;;;;;17.50;87.30;;;;;;5019823;28;19913;-70
2022/11/15 12:41:24;;;;;;;;;;;17.50;86.40;;;;;;5019506;28;19921;-69
2022/11/15 12:43:51;;;;;;;;;;;17.50;85.80;;;;;;5020404;28;19917;-68
2022/11/15 12:46:30;;;;;;;;;;;17.40;85.40;;;;;;5019871;28;20414;-70
2022/11/15 12:48:58;;;;;;;;;;;17.50;84.90;;;;;;5020233;28;20297;-65
2022/11/15 12:51:40;;;;;;;;;;;17.40;84.90;;;;;;5019405;28;19909;-69
2022/11/15 12:54:26;;;;;;;;;;;17.40;85.30;;;;;;5020027;28;20346;-70
2022/11/15 12:57:08;;;;;;;;;;;17.30;85.30;;;;;;5019768;28;20401;-68
2022/11/15 13:00:01;;;;;;;;;;;17.30;86.50;;;;;;5019738;28;19936;-67
2022/11/15 13:02:33;;;;;;;;;;;17.20;85.90;;;;;;5018558;28;20251;-67
2022/11/15 13:05:15;;;;;;;;;;;17.20;85.40;;;;;;5019850;28;20434;-68
2022/11/15 13:07:42;;;;;;;;;;;17.10;85.70;;;;;;5018900;28;19913;-68
2022/11/15 13:10:14;;;;;;;;;;;17.20;86.10;;;;;;5019706;28;20004;-67
2022/11/15 13:12:47;;;;;;;;;;;17.10;84.80;;;;;;5018982;28;20425;-67
2022/11/15 13:15:13;;;;;;;;;;;17.00;85.80;;;;;;5018224;28;19913;-68
2022/11/15 13:17:43;;;;;;;;;;;17.00;85.50;;;;;;5019013;28;19909;-68
2022/11/15 13:20:15;;;;;;;;;;;17.00;85.40;;;;;;5019821;28;20000;-66
2022/11/15 13:22:51;;;;;;;;;;;16.90;85.60;;;;;;5018928;28;20378;-67
2022/11/15 13:25:23;;;;;;;;;;;16.90;86.00;;;;;;5019728;28;19967;-66
2022/11/15 13:27:50;;;;;;;;;;;16.80;86.40;;;;;;5018998;28;19920;-67
2022/11/15 13:30:22;;;;;;;;;;;16.80;87.30;;;;;;5018870;28;19941;-66
2022/11/15 13:32:50;;;;;;;;;;;16.70;87.00;;;;;;5018694;28;19909;-66
2022/11/15 13:35:24;;;;;;;;;;;16.70;86.50;;;;;;5018719;28;19917;-69
2022/11/15 13:37:51;;;;;;;;;;;16.70;86.60;;;;;;5019031;28;19913;-67
2022/11/15 13:40:36;;;;;;;;;;;16.70;87.10;;;;;;5007531;28;19925;-67
2022/11/15 13:43:22;;;;;;;;;;;16.60;86.40;;;;;;5018308;28;20015;-67
2022/11/15 13:46:08;;;;;;;;;;;16.60;87.10;;;;;;5018524;28;20896;-68
2022/11/15 13:48:34;;;;;;;;;;;16.50;85.70;;;;;;5018366;28;19916;-67
2022/11/15 13:51:03;;;;;;;;;;;16.40;85.60;;;;;;5019187;28;20604;-66
2022/11/15 13:53:31;;;;;;;;;;;16.40;85.00;;;;;;5018914;28;20306;-66
2022/11/15 13:55:59;;;;;;;;;;;16.40;85.40;;;;;;5019404;28;19909;-67
2022/11/15 13:58:25;;;;;;;;;;;16.30;85.20;;;;;;5019418;28;20310;-66
2022/11/15 14:01:02;;;;;;;;;;;16.30;85.20;;;;;;5018580;28;20255;-65
2022/11/15 14:03:31;;;;;;;;;;;16.20;85.30;;;;;;5019203;28;20320;-68
2022/11/15 14:06:06;;;;;;;;;;;16.30;85.30;;;;;;5018763;28;19913;-66
2022/11/15 14:08:33;;;;;;;;;;;16.20;84.70;;;;;;5017649;28;19909;-67
2022/11/15 14:11:26;;;;;;;;;;;16.20;84.80;;;;;;5018592;28;19940;-66
2022/11/15 14:14:18;;;;;;;;;;;16.20;84.40;;;;;;5017209;28;19913;-68
2022/11/15 14:16:50;;;;;;;;;;;16.10;83.90;;;;;;5017153;28;20358;-68
2022/11/15 14:19:26;;;;;;;;;;;16.20;85.20;;;;;;5018727;28;19917;-68
2022/11/15 14:22:10;;;;;;;;;;;16.20;85.80;;;;;;5018166;28;20028;-67
2022/11/15 14:24:37;;;;;;;;;;;16.10;85.10;;;;;;5018418;28;20240;-68
2022/11/15 14:27:21;;;;;;;;;;;16.10;85.70;;;;;;5018419;28;19921;-68
2022/11/15 14:29:48;;;;;;;;;;;16.10;85.90;;;;;;5018129;28;19945;-68
2022/11/15 14:32:19;;;;;;;;;;;16.00;86.10;;;;;;5018866;28;19959;-67
2022/11/15 14:34:46;;;;;;;;;;;15.90;86.10;;;;;;5018152;28;19944;-67
2022/11/15 14:37:18;;;;;;;;;;;15.80;86.10;;;;;;5018133;28;20289;-67
2022/11/15 14:39:45;;;;;;;;;;;15.80;87.30;;;;;;5019764;28;19921;-66
2022/11/15 14:42:12;;;;;;;;;;;15.80;87.10;;;;;;5022381;28;19935;-67